Houston, Texas
Traffic Map
Current Weather Conditions
Houston, Texas
Clear
Clear
19°
Feels Like: 19°
Wind Chill: 19° Ceiling: Unl
Heat Index: 19° Visibility: 10mi
Dew Point: 14° Wind: 0mph
Humidity: 73% Direction: ° ()
Pressure: 30.11in Gusts: 0mph
Raw Report DataKMCJ 251055Z AUTO 00000KT 10SM CLR 19/14 A3011 RMK AO1
Traffic Incident Summary
Active as of:
Severity:
Category:
InformationThere was an issue retrieving the traffic information for this location. Please try a different location or try again shortly.
Advertisements
Track Severe Weather on mobile